createdAt,value
2018-02-12T00:01:07.356Z,113.30
2018-02-12T00:03:36.523Z,98.87
2018-02-12T00:06:06.012Z,79.65
2018-02-12T00:08:37.336Z,80.93
2018-02-12T00:11:08.247Z,75.10
2018-02-12T00:13:37.978Z,70.82
2018-02-12T00:16:08.900Z,71.82
2018-02-12T00:18:39.520Z,70.66
2018-02-12T00:21:12.787Z,66.82
2018-02-12T00:23:42.599Z,67.18
2018-02-12T00:26:12.095Z,65.00
2018-02-12T00:28:43.549Z,61.18
2018-02-12T00:31:14.031Z,70.06
2018-02-12T00:33:45.009Z,66.57
2018-02-12T00:36:15.479Z,71.50
2018-02-12T00:38:46.044Z,64.08
2018-02-12T00:41:16.538Z,64.00
2018-02-12T00:43:46.374Z,67.47
2018-02-12T00:46:16.870Z,65.72
2018-02-12T00:48:47.959Z,60.88
2018-02-12T00:51:18.871Z,63.90
2018-02-12T00:53:49.755Z,62.90
2018-02-12T00:56:24.023Z,64.22
2018-02-12T00:58:53.875Z,61.33
2018-02-12T01:01:24.570Z,59.35
2018-02-12T01:03:55.519Z,61.33
2018-02-12T01:06:26.419Z,64.90
2018-02-12T01:08:57.505Z,62.67
2018-02-12T01:11:28.023Z,63.55
2018-02-12T01:13:58.648Z,64.18
2018-02-12T01:16:29.527Z,65.70
2018-02-12T01:19:00.486Z,63.40
2018-02-12T01:21:31.480Z,68.68
2018-02-12T01:24:05.177Z,64.85
2018-02-12T01:26:34.255Z,70.68
2018-02-12T01:29:05.556Z,75.30
2018-02-12T01:31:36.067Z,71.94
2018-02-12T01:34:06.596Z,78.62
2018-02-12T01:36:37.083Z,70.52
2018-02-12T01:39:07.601Z,82.95
2018-02-12T01:41:39.185Z,74.78
2018-02-12T01:44:09.807Z,117.06
2018-02-12T01:46:40.500Z,142.43
2018-02-12T01:49:11.450Z,143.30
2018-02-12T01:51:42.383Z,118.22
2018-02-12T01:54:12.396Z,111.22
2018-02-12T01:56:43.042Z,99.80
2018-02-12T01:59:13.764Z,93.97
2018-02-12T02:01:45.195Z,93.44
2018-02-12T02:04:16.636Z,85.20
2018-02-12T02:06:47.530Z,74.47
2018-02-12T02:09:20.156Z,83.17
2018-02-12T02:11:49.841Z,73.90
2018-02-12T02:14:20.375Z,74.30
2018-02-12T02:16:50.871Z,75.44
2018-02-12T02:19:21.827Z,98.93
2018-02-12T02:21:52.430Z,93.87
2018-02-12T02:24:23.793Z,94.20
2018-02-12T02:26:54.539Z,78.75
2018-02-12T02:29:25.105Z,73.50
2018-02-12T02:31:55.680Z,73.28
2018-02-12T02:34:26.089Z,65.18
2018-02-12T02:36:56.340Z,76.40
2018-02-12T02:39:27.388Z,69.97
2018-02-12T02:41:58.235Z,71.05
2018-02-12T02:44:29.593Z,76.62
2018-02-12T02:47:00.963Z,84.16
2018-02-12T02:49:31.575Z,97.95
2018-02-12T02:52:02.463Z,90.75
2018-02-12T02:54:33.367Z,81.28
2018-02-12T02:57:05.001Z,73.28
2018-02-12T02:59:35.714Z,74.05
2018-02-12T03:02:06.044Z,68.92
2018-02-12T03:04:41.352Z,65.90
2018-02-12T03:07:10.600Z,65.75
2018-02-12T03:09:39.724Z,68.25
2018-02-12T03:12:08.915Z,62.28
2018-02-12T03:14:39.934Z,50.05
2018-02-12T03:17:10.143Z,48.10
2018-02-12T03:19:40.972Z,46.53
2018-02-12T03:22:11.594Z,46.65
2018-02-12T03:24:43.142Z,45.92
2018-02-12T03:27:13.603Z,45.60
2018-02-12T03:29:43.860Z,45.47
2018-02-12T03:32:14.357Z,43.45
2018-02-12T03:34:45.194Z,51.25
2018-02-12T03:37:16.620Z,47.24
2018-02-12T03:39:47.892Z,47.38
2018-02-12T03:42:17.922Z,41.08
2018-02-12T03:44:49.575Z,41.40
2018-02-12T03:47:25.372Z,51.10
2018-02-12T03:49:54.554Z,48.13
2018-02-12T03:52:23.759Z,49.85
2018-02-12T03:54:54.143Z,52.86
2018-02-12T03:57:25.340Z,55.08
2018-02-12T03:59:54.959Z,53.38
2018-02-12T04:02:25.607Z,54.67
2018-02-12T04:04:55.480Z,47.92
2018-02-12T04:07:26.023Z,52.38
2018-02-12T04:09:57.759Z,40.32
2018-02-12T04:12:29.198Z,38.04
2018-02-12T04:14:59.672Z,35.80
2018-02-12T04:17:30.532Z,29.10
2018-02-12T04:20:01.087Z,31.28
2018-02-12T04:22:31.784Z,24.92
2018-02-12T04:25:03.339Z,25.82
2018-02-12T04:27:33.942Z,23.88
2018-02-12T04:30:04.214Z,24.70
2018-02-12T04:32:35.767Z,20.98
2018-02-12T04:35:06.229Z,22.14
2018-02-12T04:37:35.956Z,20.88
2018-02-12T04:40:06.895Z,19.85
2018-02-12T04:42:40.640Z,21.41
2018-02-12T04:45:09.824Z,19.65
2018-02-12T04:47:39.209Z,20.97
2018-02-12T04:50:10.215Z,20.40
2018-02-12T04:52:40.814Z,19.78
2018-02-12T04:55:11.546Z,18.20
2018-02-12T04:57:42.401Z,18.62
2018-02-12T05:00:14.274Z,20.42
2018-02-12T05:02:45.063Z,20.62
2018-02-12T05:05:15.554Z,18.17
2018-02-12T05:07:46.526Z,22.25
2018-02-12T05:10:18.303Z,20.30
2018-02-12T05:12:48.987Z,17.05
2018-02-12T05:15:18.238Z,19.50
2018-02-12T05:17:49.164Z,18.98
2018-02-12T05:20:19.582Z,17.87
2018-02-12T05:22:50.212Z,20.00
2018-02-12T05:25:20.819Z,18.17
2018-02-12T05:27:52.545Z,25.06
2018-02-12T05:30:24.821Z,21.88
2018-02-12T05:32:54.206Z,25.00
2018-02-12T05:35:24.379Z,25.74
2018-02-12T05:37:56.463Z,23.12
2018-02-12T05:40:28.117Z,25.92
2018-02-12T05:42:57.812Z,22.20
2018-02-12T05:45:29.489Z,27.15
2018-02-12T05:48:00.054Z,21.60
2018-02-12T05:50:30.481Z,22.45
2018-02-12T05:53:01.864Z,27.02
2018-02-12T05:55:32.907Z,22.92
2018-02-12T05:58:04.284Z,27.64
2018-02-12T06:00:33.840Z,27.83
2018-02-12T06:03:04.603Z,29.73
2018-02-12T06:05:35.330Z,32.38
2018-02-12T06:08:06.264Z,27.10
2018-02-12T06:10:37.596Z,27.20
2018-02-12T06:13:09.198Z,27.58
2018-02-12T06:15:39.829Z,25.60
2018-02-12T06:18:09.153Z,25.58
2018-02-12T06:20:39.812Z,22.98
2018-02-12T06:23:10.729Z,30.40
2018-02-12T06:25:42.497Z,288.27
2018-02-12T06:28:12.999Z,100.40
2018-02-12T06:30:43.989Z,38.13
2018-02-12T06:33:14.409Z,59.35
2018-02-12T06:35:45.204Z,38.95
2018-02-12T06:38:15.794Z,33.08
2018-02-12T06:40:46.785Z,35.67
2018-02-12T06:43:18.576Z,27.12
2018-02-12T06:45:49.180Z,26.27
2018-02-12T06:48:19.682Z,31.87
2018-02-12T06:50:51.142Z,30.52
2018-02-12T06:53:21.796Z,59.88
2018-02-12T06:55:52.153Z,38.33
2018-02-12T06:58:22.965Z,71.32
2018-02-12T07:00:53.891Z,71.45
2018-02-12T07:03:25.386Z,70.53
2018-02-12T07:05:56.729Z,80.12
2018-02-12T07:08:27.433Z,68.37
2018-02-12T07:10:58.016Z,61.80
2018-02-12T07:16:20.213Z,112.10
2018-02-12T07:18:49.040Z,61.90
2018-02-12T07:21:18.191Z,36.33
2018-02-12T07:23:48.227Z,28.40
2018-02-12T07:26:17.363Z,30.00
2018-02-12T07:28:46.609Z,33.17
2018-02-12T07:31:16.000Z,28.35
2018-02-12T07:33:46.351Z,28.70
2018-02-12T07:36:16.579Z,24.30
2018-02-12T07:38:46.643Z,29.42
2018-02-12T07:41:15.888Z,29.12
2018-02-12T07:43:45.077Z,28.23
2018-02-12T07:46:15.803Z,31.40
2018-02-12T07:48:45.147Z,30.20
2018-02-12T07:51:14.366Z,28.50
2018-02-12T07:53:44.952Z,26.12
2018-02-12T07:56:15.456Z,28.12
2018-02-12T07:58:46.388Z,28.15
2018-02-12T08:01:18.353Z,26.65
2018-02-12T08:03:51.192Z,21.72
2018-02-12T08:06:20.291Z,23.27
2018-02-12T08:08:50.271Z,18.23
2018-02-12T08:11:20.591Z,18.65
2018-02-12T08:13:51.385Z,20.55
2018-02-12T08:16:22.305Z,16.48
2018-02-12T08:18:53.127Z,20.60
2018-02-12T08:21:24.762Z,16.12
2018-02-12T08:23:56.503Z,19.12
2018-02-12T08:26:27.954Z,17.34
2018-02-12T08:28:57.835Z,18.17
2018-02-12T08:31:28.517Z,19.05
2018-02-12T08:33:59.281Z,16.23
2018-02-12T08:36:30.123Z,17.60
2018-02-12T08:39:08.448Z,14.48
2018-02-12T08:41:37.603Z,15.63
2018-02-12T08:44:06.814Z,16.87
2018-02-12T08:46:35.957Z,15.13
2018-02-12T08:49:06.199Z,12.12
2018-02-12T08:51:36.508Z,10.98
2018-02-12T08:54:07.425Z,11.60
2018-02-12T08:56:37.916Z,16.08
2018-02-12T08:59:09.288Z,9.54
2018-02-12T09:01:39.716Z,19.26
2018-02-12T09:04:10.378Z,10.60
2018-02-12T09:06:42.651Z,12.07
2018-02-12T09:09:13.231Z,9.40
2018-02-12T09:11:43.697Z,11.88
2018-02-12T09:14:14.072Z,12.02
2018-02-12T09:16:44.460Z,10.20
2018-02-12T09:19:15.324Z,9.35
2018-02-12T09:21:45.895Z,12.25
2018-02-12T09:24:16.554Z,10.07
2018-02-12T09:26:47.798Z,14.00
2018-02-12T09:29:18.439Z,8.65
2018-02-12T09:31:49.317Z,8.68
2018-02-12T09:34:20.318Z,9.55
2018-02-12T09:36:51.211Z,12.18
2018-02-12T09:39:21.655Z,12.35
2018-02-12T09:41:52.369Z,9.75
2018-02-12T09:44:23.304Z,7.97
2018-02-12T09:46:54.117Z,11.50
2018-02-12T09:49:25.711Z,12.46
2018-02-12T09:51:58.001Z,13.90
2018-02-12T09:54:27.795Z,9.55
2018-02-12T09:56:58.328Z,10.45
2018-02-12T09:59:29.240Z,11.82
2018-02-12T10:02:00.483Z,11.18
2018-02-12T10:04:31.335Z,9.52
2018-02-12T10:07:01.788Z,10.60
2018-02-12T10:09:32.399Z,10.23
2018-02-12T10:12:03.183Z,9.18
2018-02-12T10:14:34.519Z,7.52
2018-02-12T10:17:05.199Z,8.70
2018-02-12T10:19:36.184Z,10.52
2018-02-12T10:22:07.120Z,8.80
2018-02-12T10:24:37.555Z,9.10
2018-02-12T10:27:08.362Z,11.20
2018-02-12T10:29:39.246Z,10.13
2018-02-12T10:32:10.144Z,13.25
2018-02-12T10:34:41.582Z,8.44
2018-02-12T10:37:12.109Z,10.28
2018-02-12T10:39:42.519Z,9.32
2018-02-12T10:42:13.373Z,13.23
2018-02-12T10:44:44.007Z,9.16
2018-02-12T10:47:14.775Z,9.78
2018-02-12T10:49:45.217Z,9.44
2018-02-12T10:52:15.652Z,11.18
2018-02-12T10:54:46.596Z,7.15
2018-02-12T10:57:17.484Z,9.40
2018-02-12T10:59:48.366Z,7.75
2018-02-12T11:02:18.897Z,9.06
2018-02-12T11:04:49.480Z,8.38
2018-02-12T11:07:19.911Z,7.74
2018-02-12T11:09:50.560Z,5.00
2018-02-12T11:12:21.407Z,8.75
2018-02-12T11:14:52.272Z,5.57
2018-02-12T11:17:23.067Z,12.60
2018-02-12T11:19:54.464Z,9.30
2018-02-12T11:22:25.238Z,6.32
2018-02-12T11:24:56.280Z,7.43
2018-02-12T11:27:27.115Z,8.98
2018-02-12T11:29:58.412Z,7.52
2018-02-12T11:32:29.299Z,5.97
2018-02-12T11:35:00.200Z,7.30
2018-02-12T11:37:31.557Z,8.98
2018-02-12T11:40:02.490Z,7.12
2018-02-12T11:42:33.273Z,9.93
2018-02-12T11:45:04.576Z,5.94
2018-02-12T11:47:35.386Z,11.95
2018-02-12T11:50:06.279Z,10.85
2018-02-12T11:52:37.021Z,7.68
2018-02-12T11:55:08.512Z,10.16
2018-02-12T11:57:39.574Z,13.44
2018-02-12T12:00:10.411Z,8.30
2018-02-12T12:02:41.178Z,9.45
2018-02-12T12:05:12.515Z,10.66
2018-02-12T12:07:43.315Z,8.93
2018-02-12T12:10:15.290Z,9.38
2018-02-12T12:12:45.810Z,8.72
2018-02-12T12:15:16.458Z,10.05
2018-02-12T12:17:47.394Z,10.65
2018-02-12T12:20:18.643Z,9.43
2018-02-12T12:22:49.004Z,7.36
2018-02-12T12:25:19.801Z,12.02
2018-02-12T12:27:50.395Z,7.07
2018-02-12T12:30:20.882Z,7.90
2018-02-12T12:32:51.398Z,9.02
2018-02-12T12:35:22.277Z,8.18
2018-02-12T12:37:52.687Z,7.54
2018-02-12T12:40:23.435Z,7.50
2018-02-12T12:42:54.216Z,9.75
2018-02-12T12:45:25.604Z,7.62
2018-02-12T12:47:56.319Z,10.45
2018-02-12T12:50:27.232Z,12.80
2018-02-12T12:52:58.215Z,12.82
2018-02-12T12:55:29.148Z,9.93
2018-02-12T12:58:00.523Z,9.92
2018-02-12T13:00:31.082Z,7.26
2018-02-12T13:03:01.487Z,98.85
2018-02-12T13:05:32.414Z,5.75
2018-02-12T13:08:04.112Z,4.84
2018-02-12T13:10:34.480Z,8.43
2018-02-12T13:13:04.954Z,6.26
2018-02-12T13:15:35.619Z,8.15
2018-02-12T13:18:06.311Z,4.78
2018-02-12T13:20:37.204Z,4.18
2018-02-12T13:23:07.563Z,8.20
2018-02-12T13:25:38.453Z,7.70
2018-02-12T13:28:09.240Z,8.93
2018-02-12T13:30:40.162Z,6.57
2018-02-12T13:33:11.001Z,5.57
2018-02-12T13:35:41.469Z,7.50
2018-02-12T13:38:12.394Z,8.25
2018-02-12T13:40:43.442Z,4.47
2018-02-12T13:43:14.244Z,5.97
2018-02-12T13:45:45.807Z,5.00
2018-02-12T13:48:16.356Z,6.97
2018-02-12T13:50:47.241Z,4.00
2018-02-12T13:56:03.541Z,6.22
2018-02-12T13:58:34.729Z,6.17
2018-02-12T14:01:03.982Z,5.32
2018-02-12T14:03:33.446Z,7.57
2018-02-12T14:06:02.555Z,6.43
2018-02-12T14:08:31.802Z,4.95
2018-02-12T14:11:00.963Z,4.95
2018-02-12T14:13:30.029Z,6.50
2018-02-12T14:15:59.459Z,5.43
2018-02-12T14:18:28.533Z,4.90
2018-02-12T14:20:59.032Z,6.82
2018-02-12T14:23:29.533Z,10.07
2018-02-12T14:26:00.344Z,7.45
2018-02-12T14:28:31.195Z,6.25
2018-02-12T14:31:02.083Z,7.87
2018-02-12T14:33:33.429Z,10.78
2018-02-12T14:36:04.045Z,11.60
2018-02-12T14:38:34.484Z,13.20
2018-02-12T14:41:05.356Z,304.95
2018-02-12T14:43:35.902Z,147.84
2018-02-12T14:46:06.667Z,23.83
2018-02-12T14:48:37.098Z,13.68
2018-02-12T14:51:07.485Z,10.00
2018-02-12T14:53:38.347Z,9.63
2018-02-12T14:56:08.898Z,27.88
2018-02-12T14:58:39.518Z,44.53
2018-02-12T15:01:10.372Z,272.42
2018-02-12T15:03:41.284Z,76.78
2018-02-12T15:06:12.122Z,29.83
2018-02-12T15:08:43.500Z,49.06
2018-02-12T15:11:14.331Z,52.22
2018-02-12T15:13:44.886Z,157.74
2018-02-12T15:16:15.555Z,30.62
2018-02-12T15:18:46.159Z,13.10
2018-02-12T15:21:17.003Z,17.15
2018-02-12T15:23:47.528Z,20.98
2018-02-12T15:26:18.372Z,13.90
2018-02-12T15:28:49.237Z,16.80
2018-02-12T15:31:20.542Z,16.16
2018-02-12T15:33:51.437Z,13.50
2018-02-12T15:36:22.305Z,10.32
2018-02-12T15:38:52.920Z,11.88
2018-02-12T15:41:23.456Z,13.02
2018-02-12T15:43:54.311Z,17.60
2018-02-12T15:46:25.100Z,15.95
2018-02-12T15:48:56.338Z,21.48
2018-02-12T15:51:26.776Z,20.66
2018-02-12T15:53:57.740Z,23.10
2018-02-12T15:56:28.531Z,20.10
2018-02-12T15:58:59.397Z,21.80
2018-02-12T16:01:30.199Z,20.60
2018-02-12T16:04:01.147Z,26.10
2018-02-12T16:06:32.449Z,28.40
2018-02-12T16:09:03.416Z,20.73
2018-02-12T16:11:34.229Z,25.48
2018-02-12T16:14:05.148Z,36.80
2018-02-12T16:16:36.392Z,23.74
2018-02-12T16:19:07.255Z,19.27
2018-02-12T16:21:37.536Z,17.55
2018-02-12T16:24:08.408Z,18.98
2018-02-12T16:26:38.854Z,25.54
2018-02-12T16:29:09.451Z,24.52
2018-02-12T16:32:05.034Z,28.15
2018-02-12T16:34:35.375Z,34.50
2018-02-12T16:37:04.383Z,50.97
2018-02-12T16:39:33.210Z,103.50
2018-02-12T16:42:02.350Z,179.57
2018-02-12T16:44:31.867Z,166.55
2018-02-12T16:47:01.091Z,165.57
2018-02-12T16:49:30.201Z,149.82
2018-02-12T16:51:59.631Z,100.82
2018-02-12T16:54:28.821Z,64.65
2018-02-12T16:56:58.094Z,57.42
2018-02-12T16:59:27.201Z,57.93
2018-02-12T17:01:56.662Z,53.87
2018-02-12T17:04:25.861Z,206.06
2018-02-12T17:06:55.056Z,98.70
2018-02-12T17:09:24.778Z,90.03
2018-02-12T17:11:55.446Z,114.40
2018-02-12T17:14:26.390Z,228.52
2018-02-12T17:16:57.323Z,296.85
2018-02-12T17:19:28.306Z,318.65
2018-02-12T17:21:59.190Z,318.67
2018-02-12T17:24:30.682Z,303.30
2018-02-12T17:27:01.622Z,488.20
2018-02-12T17:29:32.442Z,1047.85
2018-02-12T17:32:03.366Z,966.97
2018-02-12T17:34:34.052Z,571.92
2018-02-12T17:37:04.537Z,455.52
2018-02-12T17:39:35.584Z,437.17
2018-02-12T17:42:06.434Z,275.20
2018-02-12T17:44:37.039Z,272.66
2018-02-12T17:47:07.549Z,282.17
2018-02-12T17:49:38.476Z,283.98
2018-02-12T17:52:09.361Z,265.67
2018-02-12T17:54:40.320Z,250.60
2018-02-12T17:57:11.242Z,220.88
2018-02-12T17:59:42.567Z,166.60
2018-02-12T18:02:13.511Z,124.72
2018-02-12T18:04:44.431Z,167.65
2018-02-12T18:07:15.302Z,192.07
2018-02-12T18:09:46.243Z,161.12
2018-02-12T18:12:17.167Z,253.82
2018-02-12T18:14:48.491Z,127.24
2018-02-12T18:17:19.370Z,87.32
2018-02-12T18:19:50.738Z,223.70
2018-02-12T18:22:21.396Z,106.25
2018-02-12T18:24:51.946Z,207.42
2018-02-12T18:27:22.518Z,249.32
2018-02-12T18:29:53.461Z,412.27
2018-02-12T18:32:24.361Z,466.35
2018-02-12T18:34:55.279Z,112.62
2018-02-12T18:37:26.130Z,41.53
2018-02-12T18:39:57.554Z,97.42
2018-02-12T18:42:27.992Z,38.67
2018-02-12T18:44:59.270Z,168.78
2018-02-12T18:47:30.146Z,65.90
2018-02-12T18:50:01.169Z,177.50
2018-02-12T18:52:32.051Z,163.45
2018-02-12T18:55:03.559Z,210.70
2018-02-12T18:57:34.254Z,95.45
2018-02-12T19:00:04.722Z,97.47
2018-02-12T19:02:35.479Z,90.07
2018-02-12T19:05:06.646Z,91.40
2018-02-12T19:07:37.093Z,145.20
2018-02-12T19:10:07.843Z,192.50
2018-02-12T19:12:38.720Z,107.68
2018-02-12T19:15:10.148Z,243.10
2018-02-12T19:17:40.784Z,118.15
2018-02-12T19:20:12.232Z,72.36
2018-02-12T19:22:42.910Z,60.72
2018-02-12T19:25:13.855Z,121.55
2018-02-12T19:27:44.665Z,249.48
2018-02-12T19:30:15.109Z,206.13
2018-02-12T19:32:45.759Z,96.40
2018-02-12T19:35:16.283Z,43.67
2018-02-12T19:37:46.877Z,37.45
2018-02-12T19:40:17.873Z,40.92
2018-02-12T19:42:48.701Z,48.75
2018-02-12T19:45:20.386Z,45.76
2018-02-12T19:47:50.563Z,40.33
2018-02-12T19:50:22.369Z,39.92
2018-02-12T19:52:52.862Z,48.25
2018-02-12T19:55:23.935Z,68.03
2018-02-12T19:57:54.764Z,59.10
2018-02-12T20:00:26.233Z,55.84
2018-02-12T20:02:56.999Z,64.62
2018-02-12T20:05:27.727Z,73.87
2018-02-12T20:07:59.007Z,70.10
2018-02-12T20:10:30.547Z,70.34
2018-02-12T20:13:01.043Z,65.65
2018-02-12T20:15:31.858Z,71.60
2018-02-12T20:18:02.391Z,78.18
2018-02-12T20:20:33.918Z,78.74
2018-02-12T20:23:04.651Z,81.63
2018-02-12T20:25:35.130Z,90.57
2018-02-12T20:28:05.783Z,91.90
2018-02-12T20:30:36.742Z,91.55
2018-02-12T20:33:08.024Z,91.48
2018-02-12T20:35:38.552Z,93.05
2018-02-12T20:38:09.205Z,96.82
2018-02-12T20:40:40.207Z,93.55
2018-02-12T20:43:11.479Z,100.88
2018-02-12T20:45:42.544Z,100.57
2018-02-12T20:48:13.383Z,100.90
2018-02-12T20:50:44.540Z,121.30
2018-02-12T20:53:15.411Z,115.28
2018-02-12T20:55:46.389Z,114.68
2018-02-12T20:58:17.278Z,114.03
2018-02-12T21:00:48.202Z,98.82
2018-02-12T21:03:19.450Z,96.20
2018-02-12T21:05:51.042Z,111.78
2018-02-12T21:08:21.504Z,121.32
2018-02-12T21:10:52.091Z,118.98
2018-02-12T21:13:22.795Z,130.63
2018-02-12T21:15:53.591Z,124.00
2018-02-12T21:18:24.457Z,122.07
2018-02-12T21:20:55.015Z,125.26
2018-02-12T21:23:25.513Z,135.65
2018-02-12T21:25:56.461Z,117.97
2018-02-12T21:28:27.284Z,116.38
2018-02-12T21:30:57.557Z,114.24
2018-02-12T21:33:27.846Z,110.28
2018-02-12T21:35:58.515Z,109.87
2018-02-12T21:38:29.024Z,117.82
2018-02-12T21:40:59.559Z,118.43
2018-02-12T21:43:30.992Z,131.00
2018-02-12T21:46:01.519Z,145.98
2018-02-12T21:48:32.359Z,129.30
2018-02-12T21:51:03.855Z,119.52
2018-02-12T21:53:34.139Z,131.78
2018-02-12T21:56:04.494Z,111.85
2018-02-12T21:58:35.340Z,119.55
2018-02-12T22:01:06.313Z,110.78
2018-02-12T22:06:28.560Z,117.80
2018-02-12T22:08:57.356Z,125.97
2018-02-12T22:11:26.139Z,125.15
2018-02-12T22:13:55.331Z,112.03
2018-02-12T22:16:24.904Z,114.00
2018-02-12T22:18:54.003Z,111.88
2018-02-12T22:21:23.140Z,118.82
2018-02-12T22:23:52.559Z,104.10
2018-02-12T22:26:21.763Z,120.72
2018-02-12T22:28:50.925Z,103.28
2018-02-12T22:31:19.991Z,98.63
2018-02-12T22:33:49.078Z,94.58
2018-02-12T22:36:18.855Z,89.87
2018-02-12T22:38:50.044Z,83.70
2018-02-12T22:41:20.599Z,74.97
2018-02-12T22:43:53.845Z,77.30
2018-02-12T22:46:24.650Z,77.53
2018-02-12T22:48:54.117Z,71.28
2018-02-12T22:51:24.659Z,75.30
2018-02-12T22:53:55.114Z,81.65
2018-02-12T22:56:25.551Z,83.32
2018-02-12T22:58:57.913Z,74.53
2018-02-12T23:01:28.340Z,81.86
2018-02-12T23:03:58.771Z,69.98
2018-02-12T23:06:30.248Z,75.54
2018-02-12T23:09:00.697Z,73.42
2018-02-12T23:11:31.045Z,62.32
2018-02-12T23:14:01.883Z,68.50
2018-02-12T23:16:32.492Z,58.35
2018-02-12T23:19:02.255Z,60.72
2018-02-12T23:21:32.891Z,64.15
2018-02-12T23:24:03.708Z,57.55
2018-02-12T23:26:35.039Z,56.74
2018-02-12T23:29:05.688Z,55.05
2018-02-12T23:31:37.135Z,59.88
2018-02-12T23:34:09.366Z,59.67
2018-02-12T23:36:40.715Z,58.12
2018-02-12T23:39:11.971Z,53.48
2018-02-12T23:41:41.909Z,58.92
2018-02-12T23:44:12.420Z,59.10
2018-02-12T23:46:43.356Z,51.28
2018-02-12T23:49:14.184Z,58.55
2018-02-12T23:51:45.092Z,53.87
2018-02-12T23:54:26.997Z,55.18
2018-02-12T23:56:56.126Z,53.35
2018-02-12T23:59:25.218Z,48.92
